createdAt,value
2023-04-16T00:00:00.983Z,16.73
2023-04-16T00:00:13.227Z,16.40
2023-04-16T00:00:25.508Z,16.83
2023-04-16T00:00:37.767Z,16.65
2023-04-16T00:00:50.112Z,16.63
2023-04-16T00:01:02.252Z,16.75
2023-04-16T00:01:14.521Z,16.48
2023-04-16T00:01:27.032Z,16.58
2023-04-16T00:01:39.476Z,16.65
2023-04-16T00:01:51.930Z,16.85
2023-04-16T00:02:04.132Z,17.13
2023-04-16T00:02:16.481Z,17.00
2023-04-16T00:02:28.433Z,17.52
2023-04-16T00:02:40.681Z,18.13
2023-04-16T00:02:53.671Z,18.17
2023-04-16T00:03:06.350Z,18.10
2023-04-16T00:03:18.582Z,18.08
2023-04-16T00:03:30.786Z,18.00
2023-04-16T00:03:42.999Z,17.90
2023-04-16T00:03:55.969Z,17.50
2023-04-16T00:04:09.050Z,17.20
2023-04-16T00:04:22.778Z,17.23
2023-04-16T00:04:35.437Z,17.08
2023-04-16T00:04:48.092Z,17.20
2023-04-16T00:05:00.370Z,16.95
2023-04-16T00:05:13.895Z,16.92
2023-04-16T00:05:26.303Z,17.42
2023-04-16T00:05:38.941Z,18.02
2023-04-16T00:05:51.395Z,17.95
2023-04-16T00:06:03.918Z,17.98
2023-04-16T00:06:16.260Z,17.70
2023-04-16T00:06:28.613Z,17.17
2023-04-16T00:06:40.420Z,18.42
2023-04-16T00:06:53.160Z,19.85
2023-04-16T00:07:05.800Z,20.20
2023-04-16T00:07:18.299Z,20.60
2023-04-16T00:07:30.621Z,20.23
2023-04-16T00:07:42.849Z,19.00
2023-04-16T00:07:55.719Z,18.02
2023-04-16T00:08:07.920Z,18.25
2023-04-16T00:08:19.618Z,18.65
2023-04-16T00:08:31.763Z,18.70
2023-04-16T00:08:44.382Z,18.70
2023-04-16T00:08:56.615Z,18.08
2023-04-16T00:09:09.114Z,17.77
2023-04-16T00:09:21.300Z,17.35
2023-04-16T00:09:33.311Z,17.50
2023-04-16T00:09:45.782Z,18.17
2023-04-16T00:09:57.796Z,18.23
2023-04-16T00:10:10.249Z,18.42
2023-04-16T00:10:22.411Z,18.38
2023-04-16T00:10:34.915Z,18.58
2023-04-16T00:10:47.130Z,19.15
2023-04-16T00:10:59.284Z,19.08
2023-04-16T00:11:11.872Z,18.80
2023-04-16T00:11:24.288Z,18.52
2023-04-16T00:11:36.643Z,18.65
2023-04-16T00:11:48.722Z,18.42
2023-04-16T00:12:00.942Z,18.25
2023-04-16T00:12:13.029Z,18.52
2023-04-16T00:12:25.354Z,18.88
2023-04-16T00:12:37.772Z,18.95
2023-04-16T00:12:50.136Z,19.20
2023-04-16T00:13:02.819Z,19.42
2023-04-16T00:13:15.052Z,19.35
2023-04-16T00:13:27.840Z,18.55
2023-04-16T00:13:40.299Z,19.25
2023-04-16T00:13:52.520Z,18.73
2023-04-16T00:14:04.512Z,18.80
2023-04-16T00:14:16.969Z,19.17
2023-04-16T00:14:30.089Z,18.95
2023-04-16T00:14:42.337Z,19.85
2023-04-16T00:14:54.786Z,20.00
2023-04-16T00:15:07.462Z,19.42
2023-04-16T00:15:19.442Z,19.50
2023-04-16T00:15:31.714Z,19.52
2023-04-16T00:15:44.060Z,18.85
2023-04-16T00:15:56.437Z,18.63
2023-04-16T00:16:08.801Z,19.38
2023-04-16T00:16:20.995Z,20.00
2023-04-16T00:16:33.139Z,20.48
2023-04-16T00:16:45.205Z,19.45
2023-04-16T00:16:58.029Z,18.98
2023-04-16T00:17:10.337Z,19.17
2023-04-16T00:17:22.740Z,19.75
2023-04-16T00:17:35.263Z,19.58
2023-04-16T00:17:47.731Z,18.83
2023-04-16T00:18:00.850Z,18.85
2023-04-16T00:18:12.898Z,19.30
2023-04-16T00:18:24.993Z,19.52
2023-04-16T00:18:37.143Z,19.30
2023-04-16T00:18:49.615Z,19.27
2023-04-16T00:19:02.393Z,18.70
2023-04-16T00:19:14.518Z,19.08
2023-04-16T00:19:27.873Z,19.73
2023-04-16T00:19:40.366Z,20.08
2023-04-16T00:19:52.772Z,20.17
2023-04-16T00:20:06.478Z,19.92
2023-04-16T00:20:18.704Z,19.08
2023-04-16T00:20:30.802Z,18.80
2023-04-16T00:20:42.896Z,19.00
2023-04-16T00:20:55.193Z,19.77
2023-04-16T00:21:07.340Z,19.52
2023-04-16T00:21:20.123Z,19.45
2023-04-16T00:21:32.350Z,19.77
2023-04-16T00:21:44.803Z,20.30
2023-04-16T00:21:57.268Z,20.25
2023-04-16T00:22:09.733Z,19.52
2023-04-16T00:22:22.378Z,19.45
2023-04-16T00:22:34.598Z,19.90
2023-04-16T00:22:46.777Z,19.95
2023-04-16T00:22:59.314Z,19.27
2023-04-16T00:23:11.751Z,19.30
2023-04-16T00:23:23.515Z,20.10
2023-04-16T00:23:36.086Z,20.60
2023-04-16T00:23:48.640Z,20.45
2023-04-16T00:24:00.872Z,20.50
2023-04-16T00:24:12.900Z,20.02
2023-04-16T00:24:25.244Z,19.33
2023-04-16T00:24:37.125Z,19.27
2023-04-16T00:24:49.432Z,19.20
2023-04-16T00:25:02.529Z,19.13
2023-04-16T00:25:15.197Z,19.42
2023-04-16T00:25:27.393Z,19.30
2023-04-16T00:25:39.836Z,19.15
2023-04-16T00:25:51.907Z,19.30
2023-04-16T00:26:04.712Z,19.00
2023-04-16T00:26:17.001Z,18.48
2023-04-16T00:26:30.983Z,17.80
2023-04-16T00:26:44.260Z,18.05
2023-04-16T00:26:56.244Z,18.60
2023-04-16T00:27:08.609Z,18.48
2023-04-16T00:27:21.335Z,18.23
2023-04-16T00:27:34.340Z,18.10
2023-04-16T00:27:46.715Z,18.27
2023-04-16T00:27:58.871Z,18.77
2023-04-16T00:28:11.238Z,19.10
2023-04-16T00:28:23.488Z,18.65
2023-04-16T00:28:35.701Z,18.48
2023-04-16T00:28:47.975Z,19.23
2023-04-16T00:29:01.817Z,20.08
2023-04-16T00:29:14.112Z,19.52
2023-04-16T00:29:28.940Z,19.42
2023-04-16T00:29:42.060Z,19.73
2023-04-16T00:29:54.363Z,19.08
2023-04-16T00:30:08.350Z,18.48
2023-04-16T00:30:20.870Z,18.85
2023-04-16T00:30:33.278Z,18.90
2023-04-16T00:30:45.839Z,18.92
2023-04-16T00:30:58.314Z,18.17
2023-04-16T00:31:10.625Z,18.42
2023-04-16T00:31:27.691Z,19.08
2023-04-16T00:31:41.731Z,18.90
2023-04-16T00:31:53.919Z,18.80
2023-04-16T00:32:06.342Z,18.40
2023-04-16T00:32:18.514Z,17.75
2023-04-16T00:32:30.914Z,17.67
2023-04-16T00:32:43.488Z,17.85
2023-04-16T00:32:56.507Z,18.58
2023-04-16T00:33:08.700Z,18.48
2023-04-16T00:33:20.605Z,18.17
2023-04-16T00:33:32.731Z,18.10
2023-04-16T00:33:46.529Z,18.67
2023-04-16T00:33:59.376Z,18.80
2023-04-16T00:34:11.617Z,18.90
2023-04-16T00:34:24.049Z,18.67
2023-04-16T00:34:37.301Z,18.55
2023-04-16T00:34:50.006Z,18.33
2023-04-16T00:35:02.571Z,18.50
2023-04-16T00:35:14.715Z,19.17
2023-04-16T00:35:27.035Z,19.40
2023-04-16T00:35:39.519Z,19.02
2023-04-16T00:35:52.423Z,18.52
2023-04-16T00:36:06.664Z,18.25
2023-04-16T00:36:19.521Z,18.77
2023-04-16T00:36:32.214Z,19.13
2023-04-16T00:36:44.576Z,18.80
2023-04-16T00:36:59.429Z,18.98
2023-04-16T00:37:11.924Z,18.98
2023-04-16T00:37:24.296Z,18.42
2023-04-16T00:37:36.959Z,18.13
2023-04-16T00:37:49.647Z,18.10
2023-04-16T00:38:02.365Z,18.30
2023-04-16T00:38:14.800Z,17.98
2023-04-16T00:38:26.932Z,17.30
2023-04-16T00:38:38.965Z,17.38
2023-04-16T00:38:51.158Z,18.25
2023-04-16T00:39:03.172Z,17.48
2023-04-16T00:39:15.417Z,17.58
2023-04-16T00:39:28.614Z,17.45
2023-04-16T00:39:40.930Z,18.45
2023-04-16T00:39:53.016Z,18.48
2023-04-16T00:40:06.548Z,18.15
2023-04-16T00:40:18.722Z,17.70
2023-04-16T00:40:31.546Z,17.23
2023-04-16T00:40:43.998Z,17.25
2023-04-16T00:40:56.004Z,17.80
2023-04-16T00:41:10.751Z,18.02
2023-04-16T00:41:22.727Z,17.08
2023-04-16T00:41:35.148Z,16.25
2023-04-16T00:41:47.413Z,16.98
2023-04-16T00:41:59.712Z,17.27
2023-04-16T00:42:11.943Z,17.23
2023-04-16T00:42:24.102Z,17.50
2023-04-16T00:42:36.345Z,17.85
2023-04-16T00:42:48.807Z,17.52
2023-04-16T00:43:00.979Z,17.45
2023-04-16T00:43:21.536Z,17.75
2023-04-16T00:43:37.211Z,17.55
2023-04-16T00:43:49.646Z,17.05
2023-04-16T00:44:01.883Z,17.50
2023-04-16T00:44:14.024Z,17.60
2023-04-16T00:44:26.154Z,17.42
2023-04-16T00:44:39.086Z,16.73
2023-04-16T00:44:51.836Z,16.88
2023-04-16T00:45:04.343Z,16.70
2023-04-16T00:45:16.698Z,17.32
2023-04-16T00:45:29.468Z,17.60
2023-04-16T00:45:44.172Z,17.60
2023-04-16T00:45:57.326Z,17.67
2023-04-16T00:46:10.559Z,17.33
2023-04-16T00:46:24.275Z,17.40
2023-04-16T00:46:37.930Z,17.17
2023-04-16T00:46:50.930Z,17.14
2023-04-16T00:47:03.505Z,17.50
2023-04-16T00:47:16.240Z,16.85
2023-04-16T00:47:29.567Z,16.52
2023-04-16T00:47:41.681Z,16.33
2023-04-16T00:47:54.311Z,16.45
2023-04-16T00:48:07.000Z,17.15
2023-04-16T00:48:20.383Z,17.02
2023-04-16T00:48:33.273Z,16.17
2023-04-16T00:48:46.070Z,16.13
2023-04-16T00:49:00.194Z,16.33
2023-04-16T00:49:12.806Z,16.75
2023-04-16T00:49:25.916Z,16.35
2023-04-16T00:49:39.670Z,16.23
2023-04-16T00:49:51.750Z,16.52
2023-04-16T00:50:05.007Z,16.27
2023-04-16T00:50:19.419Z,16.35
2023-04-16T00:50:32.107Z,16.17
2023-04-16T00:50:44.675Z,16.20
2023-04-16T00:50:57.730Z,15.80
2023-04-16T00:51:09.973Z,15.63
2023-04-16T00:51:22.808Z,15.63
2023-04-16T00:51:36.592Z,15.68
2023-04-16T00:51:49.314Z,15.95
2023-04-16T00:52:02.024Z,16.05
2023-04-16T00:52:14.618Z,15.63
2023-04-16T00:52:27.534Z,15.65
2023-04-16T00:52:40.474Z,15.57
2023-04-16T00:52:53.174Z,15.35
2023-04-16T00:53:05.767Z,15.50
2023-04-16T00:53:18.218Z,15.30
2023-04-16T00:53:31.416Z,15.15
2023-04-16T00:53:45.923Z,15.82
2023-04-16T00:53:58.385Z,15.80
2023-04-16T00:54:10.819Z,15.50
2023-04-16T00:54:26.426Z,15.40
2023-04-16T00:54:39.179Z,15.10
2023-04-16T00:54:51.566Z,15.23
2023-04-16T00:55:04.597Z,15.65
2023-04-16T00:55:16.930Z,15.90
2023-04-16T00:55:29.939Z,15.80
2023-04-16T00:55:42.047Z,15.15
2023-04-16T00:55:55.596Z,15.32
2023-04-16T00:56:08.232Z,15.88
2023-04-16T00:56:22.305Z,15.35
2023-04-16T00:56:36.204Z,14.65
2023-04-16T00:56:48.841Z,15.07
2023-04-16T00:57:01.239Z,15.35
2023-04-16T00:57:14.288Z,15.35
2023-04-16T00:57:26.712Z,15.48
2023-04-16T00:57:38.868Z,14.95
2023-04-16T00:57:52.477Z,14.35
2023-04-16T00:58:07.509Z,15.02
2023-04-16T00:58:20.237Z,14.93
2023-04-16T00:58:33.446Z,15.13
2023-04-16T00:58:45.951Z,15.00
2023-04-16T00:58:59.506Z,15.35
2023-04-16T00:59:12.037Z,15.73
2023-04-16T00:59:24.537Z,15.38
2023-04-16T00:59:37.525Z,14.57
2023-04-16T00:59:50.363Z,14.75
2023-04-16T01:00:03.144Z,14.95
2023-04-16T01:00:15.801Z,14.75
2023-04-16T01:00:28.634Z,14.73
2023-04-16T01:00:40.850Z,15.20
2023-04-16T01:00:53.051Z,15.90
2023-04-16T01:01:05.974Z,16.05
2023-04-16T01:01:18.174Z,15.95
2023-04-16T01:01:30.408Z,15.25
2023-04-16T01:01:43.275Z,14.73
2023-04-16T01:01:55.141Z,14.65
2023-04-16T01:02:08.118Z,15.73
2023-04-16T01:02:20.862Z,16.40
2023-04-16T01:02:36.279Z,15.52
2023-04-16T01:02:48.418Z,14.82
2023-04-16T01:03:00.782Z,15.35
2023-04-16T01:03:13.441Z,15.88
2023-04-16T01:03:35.000Z,15.57
2023-04-16T01:03:49.067Z,15.23
2023-04-16T01:04:02.157Z,15.68
2023-04-16T01:04:14.963Z,15.82
2023-04-16T01:04:28.401Z,15.75
2023-04-16T01:04:42.341Z,15.73
2023-04-16T01:04:55.471Z,15.55
2023-04-16T01:05:08.298Z,15.35
2023-04-16T01:05:20.360Z,15.30
2023-04-16T01:05:32.938Z,15.15
2023-04-16T01:05:46.186Z,14.93
2023-04-16T01:05:58.379Z,14.68
2023-04-16T01:06:11.758Z,14.80
2023-04-16T01:06:23.777Z,15.38
2023-04-16T01:06:35.897Z,15.18
2023-04-16T01:06:48.006Z,14.55
2023-04-16T01:07:00.681Z,14.30
2023-04-16T01:07:13.037Z,14.60
2023-04-16T01:07:25.269Z,14.60
2023-04-16T01:07:37.384Z,14.65
2023-04-16T01:07:50.697Z,14.25
2023-04-16T01:08:03.536Z,14.27
2023-04-16T01:08:18.210Z,14.57
2023-04-16T01:08:30.812Z,14.50
2023-04-16T01:08:43.462Z,14.13
2023-04-16T01:08:55.725Z,14.70
2023-04-16T01:09:08.480Z,15.20
2023-04-16T01:09:21.203Z,15.35
2023-04-16T01:09:33.635Z,14.35
2023-04-16T01:09:45.739Z,14.32
2023-04-16T01:09:58.242Z,14.02
2023-04-16T01:10:10.548Z,14.25
2023-04-16T01:10:22.922Z,14.13
2023-04-16T01:10:35.247Z,14.23
2023-04-16T01:10:47.772Z,14.10
2023-04-16T01:10:59.846Z,14.00
2023-04-16T01:11:11.963Z,13.90
2023-04-16T01:11:24.836Z,13.55
2023-04-16T01:11:36.969Z,14.02
2023-04-16T01:11:50.541Z,14.70
2023-04-16T01:12:02.916Z,14.60
2023-04-16T01:12:15.714Z,14.98
2023-04-16T01:12:27.811Z,14.95
2023-04-16T01:12:40.166Z,15.10
2023-04-16T01:12:52.321Z,15.00
2023-04-16T01:13:04.991Z,14.82
2023-04-16T01:13:17.654Z,14.98
2023-04-16T01:13:29.710Z,14.73
2023-04-16T01:13:41.901Z,14.27
2023-04-16T01:13:54.186Z,14.00
2023-04-16T01:14:06.360Z,13.88
2023-04-16T01:14:19.235Z,14.07
2023-04-16T01:14:31.074Z,14.35
2023-04-16T01:14:43.440Z,14.60
2023-04-16T01:14:55.682Z,14.98
2023-04-16T01:15:09.636Z,14.38
2023-04-16T01:15:21.718Z,14.02
2023-04-16T01:15:34.658Z,14.55
2023-04-16T01:15:47.068Z,14.43
2023-04-16T01:15:59.777Z,14.55
2023-04-16T01:16:13.014Z,13.93
2023-04-16T01:16:24.964Z,14.35
2023-04-16T01:16:37.426Z,15.05
2023-04-16T01:16:49.635Z,15.23
2023-04-16T01:17:01.498Z,14.65
2023-04-16T01:17:13.705Z,14.10
2023-04-16T01:17:25.746Z,14.15
2023-04-16T01:17:38.563Z,14.30
2023-04-16T01:17:51.420Z,14.02
2023-04-16T01:18:03.631Z,14.05
2023-04-16T01:18:17.185Z,14.38
2023-04-16T01:18:29.146Z,14.68
2023-04-16T01:18:41.470Z,14.60
2023-04-16T01:18:54.222Z,14.30
2023-04-16T01:19:06.579Z,14.43
2023-04-16T01:19:18.798Z,14.55
2023-04-16T01:19:31.366Z,14.77
2023-04-16T01:19:44.826Z,14.35
2023-04-16T01:19:59.768Z,14.18
2023-04-16T01:20:11.947Z,13.68
2023-04-16T01:20:24.809Z,13.18
2023-04-16T01:20:38.238Z,13.45
2023-04-16T01:20:50.678Z,13.35
2023-04-16T01:21:04.701Z,12.88
2023-04-16T01:21:18.307Z,13.88
2023-04-16T01:21:30.762Z,14.20
2023-04-16T01:21:44.229Z,14.15
2023-04-16T01:21:56.709Z,14.30
2023-04-16T01:22:09.376Z,14.07
2023-04-16T01:22:21.870Z,14.00
2023-04-16T01:22:34.535Z,14.00
2023-04-16T01:22:46.560Z,13.70
2023-04-16T01:22:59.326Z,13.80
2023-04-16T01:23:12.121Z,14.25
2023-04-16T01:23:24.285Z,14.40
2023-04-16T01:23:36.686Z,13.90
2023-04-16T01:23:49.208Z,13.60
2023-04-16T01:24:03.062Z,13.90
2023-04-16T01:24:15.593Z,13.80
2023-04-16T01:24:27.983Z,13.55
2023-04-16T01:24:40.498Z,13.38
2023-04-16T01:24:55.711Z,13.90
2023-04-16T01:25:13.439Z,14.05
2023-04-16T01:25:25.503Z,13.65
2023-04-16T01:25:37.530Z,13.57
2023-04-16T01:25:49.897Z,13.57
2023-04-16T01:26:02.229Z,13.35
2023-04-16T01:26:14.608Z,13.38
2023-04-16T01:26:27.196Z,13.60
2023-04-16T01:26:38.973Z,13.48
2023-04-16T01:26:51.732Z,13.80
2023-04-16T01:27:04.614Z,13.95
2023-04-16T01:27:17.076Z,13.70
2023-04-16T01:27:29.432Z,13.30
2023-04-16T01:27:41.692Z,12.65
2023-04-16T01:27:54.014Z,12.80
2023-04-16T01:28:06.118Z,13.25
2023-04-16T01:28:18.462Z,13.73
2023-04-16T01:28:31.367Z,13.80
2023-04-16T01:28:43.836Z,14.45
2023-04-16T01:28:56.229Z,14.35
2023-04-16T01:29:08.743Z,13.90
2023-04-16T01:29:21.116Z,13.70
2023-04-16T01:29:35.028Z,13.63
2023-04-16T01:29:47.226Z,13.45
2023-04-16T01:30:06.042Z,13.10
2023-04-16T01:30:28.516Z,13.65
2023-04-16T01:30:50.383Z,13.45
2023-04-16T01:31:24.617Z,14.15
2023-04-16T01:32:00.470Z,13.23
2023-04-16T01:32:24.344Z,13.88
2023-04-16T01:32:36.806Z,13.68
2023-04-16T01:32:48.721Z,13.52
2023-04-16T01:33:01.820Z,13.93
2023-04-16T01:33:15.606Z,13.63
2023-04-16T01:33:27.983Z,12.93
2023-04-16T01:33:40.701Z,13.15
2023-04-16T01:33:52.923Z,13.32
2023-04-16T01:34:05.189Z,13.45
2023-04-16T01:34:17.888Z,13.75
2023-04-16T01:34:31.132Z,13.90
2023-04-16T01:34:43.916Z,13.52
2023-04-16T01:34:56.667Z,12.88
2023-04-16T01:35:09.180Z,12.90
2023-04-16T01:35:21.436Z,13.18
2023-04-16T01:35:33.581Z,13.35
2023-04-16T01:35:47.275Z,13.05
2023-04-16T01:36:01.101Z,13.13
2023-04-16T01:36:13.093Z,13.73
2023-04-16T01:36:25.603Z,13.40
2023-04-16T01:36:38.005Z,13.55
2023-04-16T01:36:50.013Z,13.07
2023-04-16T01:37:03.765Z,13.20
2023-04-16T01:37:17.732Z,13.15
2023-04-16T01:37:31.682Z,12.93
2023-04-16T01:37:44.277Z,12.95
2023-04-16T01:37:56.742Z,12.93
2023-04-16T01:38:10.237Z,12.35
2023-04-16T01:38:22.259Z,12.18
2023-04-16T01:38:34.705Z,12.80
2023-04-16T01:38:47.821Z,13.05
2023-04-16T01:39:00.163Z,13.25
2023-04-16T01:39:13.104Z,13.20
2023-04-16T01:39:25.298Z,13.35
2023-04-16T01:39:37.720Z,13.05
2023-04-16T01:39:50.107Z,12.35
2023-04-16T01:40:02.039Z,12.05
2023-04-16T01:40:14.794Z,12.52
2023-04-16T01:40:27.370Z,12.70
2023-04-16T01:40:39.547Z,12.30
2023-04-16T01:40:56.011Z,12.43
2023-04-16T01:41:10.012Z,12.68
2023-04-16T01:41:22.090Z,12.77
2023-04-16T01:41:34.281Z,13.05
2023-04-16T01:41:46.524Z,12.93
2023-04-16T01:41:59.063Z,12.57
2023-04-16T01:42:11.460Z,12.77
2023-04-16T01:42:24.902Z,12.85
2023-04-16T01:42:37.704Z,12.80
2023-04-16T01:42:49.877Z,12.70
2023-04-16T01:43:02.237Z,12.50
2023-04-16T01:43:15.800Z,12.20
2023-04-16T01:43:28.063Z,12.02
2023-04-16T01:43:41.123Z,12.30
2023-04-16T01:43:53.367Z,12.60
2023-04-16T01:44:05.637Z,12.75
2023-04-16T01:44:18.105Z,12.77
2023-04-16T01:44:30.837Z,12.90
2023-04-16T01:44:42.980Z,12.52
2023-04-16T01:44:54.882Z,12.50
2023-04-16T01:45:08.088Z,12.70
2023-04-16T01:45:20.504Z,12.50
2023-04-16T01:45:33.323Z,12.40
2023-04-16T01:45:45.362Z,12.50
2023-04-16T01:46:14.196Z,12.77
2023-04-16T01:46:29.496Z,13.13
2023-04-16T01:46:42.118Z,12.60
2023-04-16T01:46:54.752Z,12.43
2023-04-16T01:47:06.972Z,12.52
2023-04-16T01:47:19.312Z,12.45
2023-04-16T01:47:31.419Z,12.52
2023-04-16T01:47:44.348Z,12.65
2023-04-16T01:47:56.610Z,12.48
2023-04-16T01:48:09.372Z,12.00
2023-04-16T01:48:21.404Z,12.38
2023-04-16T01:48:33.795Z,12.70
2023-04-16T01:48:46.185Z,12.77
2023-04-16T01:48:58.138Z,12.02
2023-04-16T01:49:10.310Z,11.90
2023-04-16T01:49:22.868Z,11.85
2023-04-16T01:49:34.938Z,12.27
2023-04-16T01:49:47.456Z,11.88
2023-04-16T01:49:59.688Z,11.98
2023-04-16T01:50:11.858Z,12.00
2023-04-16T01:50:23.950Z,11.75
2023-04-16T01:50:36.334Z,11.95
2023-04-16T01:50:50.211Z,12.00
2023-04-16T01:51:02.697Z,11.57
2023-04-16T01:51:15.367Z,11.68
2023-04-16T01:51:28.156Z,11.45
2023-04-16T01:51:40.487Z,11.80
2023-04-16T01:51:52.664Z,12.15
2023-04-16T01:52:05.646Z,12.27
2023-04-16T01:52:18.392Z,12.14
2023-04-16T01:52:31.056Z,12.18
2023-04-16T01:52:43.427Z,12.07
2023-04-16T01:52:56.124Z,12.18
2023-04-16T01:53:08.750Z,11.90
2023-04-16T01:53:21.138Z,12.32
2023-04-16T01:53:34.337Z,12.27
2023-04-16T01:53:47.992Z,12.27
2023-04-16T01:54:00.716Z,12.30
2023-04-16T01:54:13.894Z,12.07
2023-04-16T01:54:26.140Z,11.68
2023-04-16T01:54:38.507Z,11.80
2023-04-16T01:54:50.666Z,12.18
2023-04-16T01:55:02.774Z,11.93
2023-04-16T01:55:14.958Z,11.60
2023-04-16T01:55:27.362Z,11.38
2023-04-16T01:55:39.327Z,11.82
2023-04-16T01:55:51.860Z,11.88
2023-04-16T01:56:04.688Z,11.77
2023-04-16T01:56:17.826Z,11.50
2023-04-16T01:56:30.061Z,11.27
2023-04-16T01:56:42.191Z,11.43
2023-04-16T01:56:54.594Z,11.80
2023-04-16T01:57:07.699Z,11.75
2023-04-16T01:57:20.426Z,11.65
2023-04-16T01:57:32.652Z,11.80
2023-04-16T01:57:44.637Z,11.57
2023-04-16T01:57:58.489Z,11.45
2023-04-16T01:58:14.386Z,11.60
2023-04-16T01:58:28.539Z,11.43
2023-04-16T01:58:41.156Z,11.65
2023-04-16T01:58:53.017Z,12.15
2023-04-16T01:59:06.680Z,11.95
2023-04-16T01:59:24.020Z,11.82
2023-04-16T01:59:36.192Z,11.93
2023-04-16T01:59:49.090Z,11.63
2023-04-16T02:00:02.368Z,11.60
2023-04-16T02:00:15.286Z,11.90
2023-04-16T02:00:33.919Z,11.63
2023-04-16T02:00:46.390Z,11.65
2023-04-16T02:00:59.423Z,12.02
2023-04-16T02:01:12.533Z,12.07
2023-04-16T02:01:25.491Z,12.00
2023-04-16T02:01:37.715Z,12.20
2023-04-16T02:01:50.411Z,11.95
2023-04-16T02:02:07.587Z,11.80
2023-04-16T02:02:20.352Z,11.35
2023-04-16T02:02:32.922Z,11.43
2023-04-16T02:02:45.309Z,11.30
2023-04-16T02:03:01.728Z,12.18
2023-04-16T02:03:14.389Z,12.23
2023-04-16T02:03:26.722Z,12.18
2023-04-16T02:03:39.124Z,11.80
2023-04-16T02:03:51.647Z,11.18
2023-04-16T02:04:04.604Z,11.63
2023-04-16T02:04:17.001Z,12.30
2023-04-16T02:04:29.361Z,11.82
2023-04-16T02:04:42.252Z,11.50
2023-04-16T02:04:54.426Z,11.73
2023-04-16T02:05:06.865Z,11.85
2023-04-16T02:05:19.354Z,11.65
2023-04-16T02:05:32.721Z,11.88
2023-04-16T02:05:45.389Z,11.68
2023-04-16T02:05:58.997Z,12.02
2023-04-16T02:06:13.967Z,12.10
2023-04-16T02:06:26.406Z,11.98
2023-04-16T02:06:39.312Z,11.95
2023-04-16T02:06:51.906Z,11.50
2023-04-16T02:07:04.384Z,11.13
2023-04-16T02:07:16.579Z,11.18
2023-04-16T02:07:28.912Z,12.05
2023-04-16T02:07:40.898Z,12.15
2023-04-16T02:07:53.774Z,12.18
2023-04-16T02:08:06.459Z,12.02
2023-04-16T02:08:19.203Z,11.63
2023-04-16T02:08:33.341Z,11.73
2023-04-16T02:08:45.550Z,11.70
2023-04-16T02:09:00.268Z,11.65
2023-04-16T02:09:12.484Z,11.88
2023-04-16T02:09:25.405Z,11.98
2023-04-16T02:09:38.388Z,11.48
2023-04-16T02:09:52.313Z,11.55
2023-04-16T02:10:05.132Z,11.20
2023-04-16T02:10:19.053Z,11.35
2023-04-16T02:10:31.870Z,11.77
2023-04-16T02:10:46.090Z,11.48
2023-04-16T02:10:58.626Z,11.40
2023-04-16T02:11:12.113Z,11.85
2023-04-16T02:11:24.589Z,11.60
2023-04-16T02:11:36.993Z,11.35
2023-04-16T02:11:49.442Z,10.80
2023-04-16T02:12:01.870Z,11.20
2023-04-16T02:12:14.725Z,12.05
2023-04-16T02:12:26.989Z,12.57
2023-04-16T02:12:39.169Z,12.02
2023-04-16T02:12:51.939Z,11.77
2023-04-16T02:13:04.826Z,11.68
2023-04-16T02:13:17.339Z,11.43
2023-04-16T02:13:31.873Z,11.93
2023-04-16T02:13:44.293Z,12.13
2023-04-16T02:13:56.658Z,11.88
2023-04-16T02:14:09.202Z,12.00
2023-04-16T02:14:21.897Z,12.10
2023-04-16T02:14:34.389Z,12.23
2023-04-16T02:14:47.583Z,12.25
2023-04-16T02:15:01.893Z,12.15
2023-04-16T02:15:15.504Z,12.20
2023-04-16T02:15:28.249Z,12.23
2023-04-16T02:15:44.816Z,12.07
2023-04-16T02:15:57.994Z,12.02
2023-04-16T02:16:28.188Z,11.73
2023-04-16T02:16:50.305Z,12.23
2023-04-16T02:17:23.231Z,11.57
2023-04-16T02:17:36.925Z,11.52
2023-04-16T02:17:54.838Z,12.00
2023-04-16T02:18:07.892Z,12.43
2023-04-16T02:18:21.028Z,12.52
2023-04-16T02:18:34.314Z,12.18
2023-04-16T02:18:47.327Z,11.70
2023-04-16T02:19:01.517Z,11.77
2023-04-16T02:19:17.948Z,12.13
2023-04-16T02:19:30.727Z,12.13
2023-04-16T02:19:44.262Z,11.95
2023-04-16T02:19:57.052Z,11.86
2023-04-16T02:20:10.755Z,11.40
2023-04-16T02:20:40.729Z,11.68
2023-04-16T02:20:53.023Z,11.35
2023-04-16T02:21:07.824Z,11.32
2023-04-16T02:21:20.137Z,11.60
2023-04-16T02:21:32.635Z,11.70
2023-04-16T02:21:45.408Z,12.18
2023-04-16T02:21:57.533Z,11.95
2023-04-16T02:22:10.471Z,11.73
2023-04-16T02:22:22.972Z,11.63
2023-04-16T02:22:35.304Z,11.18
2023-04-16T02:22:47.902Z,11.55
2023-04-16T02:23:03.621Z,11.40
2023-04-16T02:23:16.368Z,11.13
2023-04-16T02:23:29.325Z,12.02
2023-04-16T02:23:43.160Z,12.07
2023-04-16T02:23:55.786Z,12.05
2023-04-16T02:24:13.189Z,11.93
2023-04-16T02:24:26.538Z,12.05
2023-04-16T02:24:39.186Z,12.20
2023-04-16T02:24:54.717Z,12.52
2023-04-16T02:25:07.322Z,12.43
2023-04-16T02:25:20.066Z,12.10
2023-04-16T02:25:33.296Z,12.10
2023-04-16T02:25:47.461Z,12.20
2023-04-16T02:26:00.665Z,11.98
2023-04-16T02:26:13.912Z,12.20
2023-04-16T02:26:26.679Z,12.32
2023-04-16T02:26:40.826Z,12.13
2023-04-16T02:26:58.885Z,11.95
2023-04-16T02:27:11.303Z,12.10
2023-04-16T02:27:23.925Z,12.23
2023-04-16T02:27:41.418Z,11.95
2023-04-16T02:28:08.000Z,11.73
2023-04-16T02:28:24.990Z,11.93
2023-04-16T02:28:37.546Z,11.80
2023-04-16T02:28:51.252Z,12.20
2023-04-16T02:29:11.540Z,11.25
2023-04-16T02:29:28.634Z,11.18
2023-04-16T02:29:47.158Z,11.32
2023-04-16T02:30:02.801Z,11.07
2023-04-16T02:30:17.071Z,11.43
2023-04-16T02:30:30.232Z,11.30
2023-04-16T02:30:42.820Z,11.02
2023-04-16T02:30:56.607Z,11.25
2023-04-16T02:31:08.520Z,11.62
2023-04-16T02:31:26.407Z,11.70
2023-04-16T02:31:39.165Z,11.15
2023-04-16T02:31:52.665Z,10.77
2023-04-16T02:32:06.086Z,10.20
2023-04-16T02:32:19.898Z,11.35
2023-04-16T02:32:33.065Z,11.93
2023-04-16T02:32:45.684Z,11.52
2023-04-16T02:32:59.642Z,11.50
2023-04-16T02:33:14.083Z,11.43
2023-04-16T02:33:37.441Z,10.98
2023-04-16T02:33:49.543Z,11.52
2023-04-16T02:34:02.411Z,11.80
2023-04-16T02:34:15.173Z,11.07
2023-04-16T02:34:27.563Z,10.77
2023-04-16T02:34:40.264Z,10.88
2023-04-16T02:34:53.371Z,11.23
2023-04-16T02:35:06.721Z,11.07
2023-04-16T02:35:19.077Z,10.68
2023-04-16T02:35:31.446Z,10.95
2023-04-16T02:35:43.678Z,11.68
2023-04-16T02:35:55.797Z,11.55
2023-04-16T02:36:09.866Z,11.75
2023-04-16T02:36:22.245Z,11.70
2023-04-16T02:36:34.265Z,11.88
2023-04-16T02:36:47.306Z,11.95
2023-04-16T02:36:59.616Z,11.70
2023-04-16T02:37:11.896Z,12.15
2023-04-16T02:37:24.577Z,11.48
2023-04-16T02:37:36.976Z,10.75
2023-04-16T02:37:49.189Z,10.52
2023-04-16T02:38:01.659Z,11.55
2023-04-16T02:38:13.933Z,12.30
2023-04-16T02:38:28.442Z,12.13
2023-04-16T02:38:40.646Z,11.42
2023-04-16T02:38:53.083Z,11.30
2023-04-16T02:39:05.544Z,11.20
2023-04-16T02:39:18.460Z,11.68
2023-04-16T02:39:32.034Z,11.65
2023-04-16T02:39:43.977Z,11.45
2023-04-16T02:39:56.586Z,11.43
2023-04-16T02:40:10.038Z,12.02
2023-04-16T02:40:22.451Z,12.27
2023-04-16T02:40:35.314Z,12.05
2023-04-16T02:40:48.519Z,11.45
2023-04-16T02:41:02.017Z,11.18
2023-04-16T02:41:15.351Z,11.07
2023-04-16T02:41:28.448Z,10.73
2023-04-16T02:41:40.856Z,10.70
2023-04-16T02:41:53.045Z,10.88
2023-04-16T02:42:05.469Z,10.85
2023-04-16T02:42:17.889Z,11.05
2023-04-16T02:42:30.164Z,10.88
2023-04-16T02:42:42.360Z,10.57
2023-04-16T02:42:54.842Z,10.77
2023-04-16T02:43:07.394Z,10.93
2023-04-16T02:43:19.970Z,11.40
2023-04-16T02:43:32.107Z,11.32
2023-04-16T02:43:44.463Z,11.02
2023-04-16T02:43:56.343Z,10.23
2023-04-16T02:44:08.323Z,10.40
2023-04-16T02:44:20.702Z,10.55
2023-04-16T02:44:33.586Z,10.60
2023-04-16T02:44:45.686Z,10.38
2023-04-16T02:44:58.068Z,10.80
2023-04-16T02:45:11.726Z,10.80
2023-04-16T02:45:25.205Z,10.65
2023-04-16T02:45:37.313Z,10.40
2023-04-16T02:45:49.580Z,10.23
2023-04-16T02:46:01.891Z,10.52
2023-04-16T02:46:14.422Z,10.88
2023-04-16T02:46:26.868Z,11.23
2023-04-16T02:46:39.226Z,11.65
2023-04-16T02:46:51.903Z,11.15
2023-04-16T02:47:03.841Z,10.82
2023-04-16T02:47:16.654Z,10.85
2023-04-16T02:47:28.942Z,11.30
2023-04-16T02:47:41.422Z,11.30
2023-04-16T02:47:54.147Z,11.20
2023-04-16T02:48:07.043Z,11.20
2023-04-16T02:48:19.303Z,11.18